Andersen AFB, Guam
Current Conditions -  °F | °C
As of 7:58 PM on Saturday 01 Nov 2014 (Local Time) from PGUA Reporting Station
Haze Haze  
Wind Chill: 79°   Ceiling: 19000
Heat Index: 84°   Visibility: 5mi
Dew Point: 75°   Wind: 3mph
Humidity: 88%   Direction: 310°NW
Pressure: 29.87"   Gusts: NA
Location:  13.58°N, 144.92°E
Report Text: PGUA 010958Z AUTO 31003KT 5SM HZ SCT160 BKN190 26/24 A2987 RMK AO2 SLP105 T02630241 $
Loading
Personal Weather Stations






























Interactive Weather Map New forecast layout! Learn more

10-Day Weather Forecast

Advertisements
Track Severe Weather on mobile